createdAt,value
2022-09-03T00:00:01.247Z,0.90
2022-09-03T00:02:40.307Z,1.53
2022-09-03T00:05:18.938Z,0.90
2022-09-03T00:07:59.357Z,1.00
2022-09-03T00:10:44.842Z,1.30
2022-09-03T00:13:20.878Z,1.03
2022-09-03T00:15:53.344Z,1.20
2022-09-03T00:18:28.285Z,0.90
2022-09-03T00:21:08.286Z,1.10
2022-09-03T00:23:42.963Z,1.10
2022-09-03T00:26:26.145Z,1.30
2022-09-03T00:29:03.665Z,1.20
2022-09-03T00:31:38.334Z,1.10
2022-09-03T00:34:13.772Z,1.10
2022-09-03T00:36:44.741Z,1.00
2022-09-03T00:39:16.634Z,1.00
2022-09-03T00:42:10.582Z,0.90
2022-09-03T00:45:06.647Z,1.17
2022-09-03T00:47:53.805Z,1.20
2022-09-03T00:50:42.119Z,1.13
2022-09-03T00:53:23.398Z,1.10
2022-09-03T00:56:03.813Z,1.10
2022-09-03T00:58:55.575Z,1.30
2022-09-03T01:01:36.063Z,1.20
2022-09-03T01:04:27.421Z,1.40
2022-09-03T01:07:10.649Z,1.10
2022-09-03T01:09:54.218Z,1.30
2022-09-03T01:12:40.970Z,1.10
2022-09-03T01:15:18.172Z,1.10
2022-09-03T01:18:04.271Z,1.10
2022-09-03T01:20:50.641Z,1.17
2022-09-03T01:24:11.127Z,1.03
2022-09-03T01:27:03.450Z,1.13
2022-09-03T01:29:44.387Z,1.30
2022-09-03T01:32:24.834Z,1.13
2022-09-03T01:35:03.723Z,1.10
2022-09-03T01:37:49.534Z,1.17
2022-09-03T01:40:29.011Z,1.23
2022-09-03T01:43:18.327Z,1.30
2022-09-03T01:46:00.526Z,1.27
2022-09-03T01:48:46.320Z,1.20
2022-09-03T01:51:22.255Z,1.20
2022-09-03T01:54:21.369Z,1.17
2022-09-03T01:57:35.529Z,1.10
2022-09-03T02:00:13.215Z,1.47
2022-09-03T02:02:47.374Z,1.30
2022-09-03T02:05:24.636Z,1.50
2022-09-03T02:08:00.142Z,1.37
2022-09-03T02:10:35.064Z,1.10
2022-09-03T02:13:09.048Z,1.10
2022-09-03T02:15:41.035Z,1.37
2022-09-03T02:18:18.961Z,1.10
2022-09-03T02:20:49.027Z,1.20
2022-09-03T02:23:17.864Z,1.10
2022-09-03T02:25:58.456Z,1.50
2022-09-03T02:28:29.041Z,1.00
2022-09-03T02:30:58.376Z,1.10
2022-09-03T02:33:28.228Z,1.10
2022-09-03T02:35:56.853Z,1.30
2022-09-03T02:38:28.296Z,1.17
2022-09-03T02:40:56.624Z,1.23
2022-09-03T02:43:35.038Z,1.20
2022-09-03T02:46:08.846Z,1.60
2022-09-03T02:48:38.553Z,1.20
2022-09-03T02:51:13.823Z,1.40
2022-09-03T02:53:43.487Z,1.60
2022-09-03T02:56:13.404Z,1.30
2022-09-03T02:58:41.931Z,1.30
2022-09-03T03:01:10.395Z,1.10
2022-09-03T03:03:45.169Z,1.63
2022-09-03T03:06:14.701Z,1.40
2022-09-03T03:08:44.213Z,1.17
2022-09-03T03:11:14.447Z,1.57
2022-09-03T03:13:42.785Z,0.90
2022-09-03T03:16:12.079Z,1.20
2022-09-03T03:18:41.247Z,1.10
2022-09-03T03:21:14.252Z,1.17
2022-09-03T03:23:44.907Z,1.10
2022-09-03T03:26:18.391Z,1.00
2022-09-03T03:28:48.878Z,1.40
2022-09-03T03:31:20.770Z,1.53
2022-09-03T03:33:53.505Z,1.20
2022-09-03T03:36:26.418Z,1.10
2022-09-03T03:38:57.241Z,1.13
2022-09-03T03:41:31.340Z,1.40
2022-09-03T03:44:02.835Z,1.20
2022-09-03T03:46:34.243Z,1.40
2022-09-03T03:49:02.887Z,1.40
2022-09-03T03:51:33.756Z,1.20
2022-09-03T03:54:05.316Z,1.30
2022-09-03T03:56:35.188Z,1.30
2022-09-03T03:59:04.436Z,1.20
2022-09-03T04:01:33.567Z,1.37
2022-09-03T04:04:02.180Z,1.30
2022-09-03T04:06:32.220Z,1.30
2022-09-03T04:09:00.534Z,1.23
2022-09-03T04:11:29.431Z,1.50
2022-09-03T04:13:59.065Z,1.47
2022-09-03T04:16:28.624Z,1.20
2022-09-03T04:18:58.944Z,1.20
2022-09-03T04:21:29.942Z,1.37
2022-09-03T04:24:00.458Z,1.30
2022-09-03T04:26:31.729Z,1.30
2022-09-03T04:29:02.327Z,1.10
2022-09-03T04:31:31.257Z,1.50
2022-09-03T04:34:00.664Z,1.60
2022-09-03T04:36:31.949Z,1.30
2022-09-03T04:39:02.903Z,1.70
2022-09-03T04:41:32.522Z,1.40
2022-09-03T04:44:01.475Z,1.47
2022-09-03T04:46:33.002Z,1.20
2022-09-03T04:49:07.235Z,1.50
2022-09-03T04:51:37.818Z,1.30
2022-09-03T04:54:09.938Z,1.40
2022-09-03T04:56:41.582Z,1.30
2022-09-03T04:59:10.885Z,1.77
2022-09-03T05:01:41.617Z,1.40
2022-09-03T05:04:10.304Z,1.33
2022-09-03T05:06:39.172Z,1.50
2022-09-03T05:09:08.785Z,1.23
2022-09-03T05:11:38.011Z,1.00
2022-09-03T05:14:07.162Z,1.30
2022-09-03T05:16:35.561Z,1.33
2022-09-03T05:19:07.907Z,1.20
2022-09-03T05:21:37.771Z,1.50
2022-09-03T05:24:07.928Z,1.27
2022-09-03T05:26:40.165Z,1.50
2022-09-03T05:29:09.480Z,1.40
2022-09-03T05:31:40.323Z,1.17
2022-09-03T05:34:16.270Z,1.97
2022-09-03T05:36:49.838Z,1.30
2022-09-03T05:39:20.145Z,1.60
2022-09-03T05:41:52.357Z,1.90
2022-09-03T05:44:23.197Z,1.30
2022-09-03T05:46:53.261Z,1.40
2022-09-03T05:49:21.566Z,1.20
2022-09-03T05:51:50.171Z,1.30
2022-09-03T05:54:20.467Z,1.50
2022-09-03T05:56:49.763Z,1.27
2022-09-03T05:59:18.482Z,1.63
2022-09-03T06:01:51.588Z,1.43
2022-09-03T06:04:21.607Z,1.30
2022-09-03T06:06:50.146Z,1.50
2022-09-03T06:09:23.845Z,1.60
2022-09-03T06:11:53.891Z,1.43
2022-09-03T06:14:23.672Z,1.67
2022-09-03T06:16:53.187Z,1.60
2022-09-03T06:19:21.811Z,1.60
2022-09-03T06:21:50.741Z,1.67
2022-09-03T06:24:26.238Z,1.60
2022-09-03T06:26:57.114Z,1.50
2022-09-03T06:29:26.965Z,1.60
2022-09-03T06:31:56.901Z,1.80
2022-09-03T06:34:27.211Z,1.60
2022-09-03T06:36:55.664Z,1.70
2022-09-03T06:39:26.999Z,1.70
2022-09-03T06:41:56.001Z,1.70
2022-09-03T06:44:35.357Z,1.43
2022-09-03T06:47:04.028Z,1.40
2022-09-03T06:49:32.695Z,1.77
2022-09-03T06:52:01.164Z,1.40
2022-09-03T06:54:31.024Z,1.60
2022-09-03T06:56:59.617Z,1.67
2022-09-03T06:59:28.335Z,1.60
2022-09-03T07:01:59.011Z,1.70
2022-09-03T07:04:27.526Z,1.70
2022-09-03T07:06:57.461Z,1.77
2022-09-03T07:09:26.069Z,1.37
2022-09-03T07:11:56.603Z,1.70
2022-09-03T07:14:25.553Z,1.57
2022-09-03T07:16:56.108Z,1.70
2022-09-03T07:19:24.442Z,1.57
2022-09-03T07:21:52.770Z,1.67
2022-09-03T07:24:22.244Z,1.53
2022-09-03T07:26:52.493Z,1.40
2022-09-03T07:29:22.113Z,1.40
2022-09-03T07:31:53.154Z,1.77
2022-09-03T07:34:26.433Z,1.67
2022-09-03T07:36:55.971Z,1.80
2022-09-03T07:39:25.132Z,1.73
2022-09-03T07:41:53.766Z,1.50
2022-09-03T07:44:24.390Z,1.60
2022-09-03T07:46:52.931Z,1.50
2022-09-03T07:49:22.541Z,1.90
2022-09-03T07:51:54.404Z,1.30
2022-09-03T07:54:23.996Z,3.23
2022-09-03T07:56:53.615Z,1.67
2022-09-03T07:59:23.867Z,1.23
2022-09-03T08:01:53.037Z,1.60
2022-09-03T08:04:22.873Z,1.50
2022-09-03T08:06:55.932Z,1.37
2022-09-03T08:09:25.059Z,1.70
2022-09-03T08:11:54.152Z,1.47
2022-09-03T08:14:24.108Z,1.40
2022-09-03T08:16:52.489Z,1.50
2022-09-03T08:19:22.253Z,1.63
2022-09-03T08:21:50.605Z,1.40
2022-09-03T08:24:21.238Z,1.30
2022-09-03T08:26:52.229Z,1.30
2022-09-03T08:29:23.503Z,1.43
2022-09-03T08:31:52.925Z,1.23
2022-09-03T08:34:21.618Z,1.33
2022-09-03T08:36:54.500Z,1.30
2022-09-03T08:39:23.168Z,1.43
2022-09-03T08:42:26.528Z,2.00
2022-09-03T08:44:58.921Z,1.20
2022-09-03T08:47:34.917Z,1.37
2022-09-03T08:50:12.624Z,1.60
2022-09-03T08:52:48.987Z,1.30
2022-09-03T08:55:26.476Z,1.20
2022-09-03T08:58:05.779Z,1.37
2022-09-03T09:00:51.118Z,1.37
2022-09-03T09:03:48.480Z,1.10
2022-09-03T09:06:27.357Z,1.43
2022-09-03T09:09:12.899Z,1.30
2022-09-03T09:11:59.294Z,1.30
2022-09-03T09:14:37.528Z,1.30
2022-09-03T09:17:33.625Z,1.30
2022-09-03T09:20:16.066Z,1.47
2022-09-03T09:22:51.858Z,1.40
2022-09-03T09:25:24.341Z,1.33
2022-09-03T09:28:00.525Z,1.20
2022-09-03T09:30:33.153Z,1.10
2022-09-03T09:33:02.808Z,1.10
2022-09-03T09:35:31.220Z,1.30
2022-09-03T09:38:00.475Z,1.00
2022-09-03T09:40:34.113Z,1.17
2022-09-03T09:43:13.552Z,1.00
2022-09-03T09:45:44.790Z,1.27
2022-09-03T09:48:23.545Z,1.07
2022-09-03T09:51:06.699Z,1.10
2022-09-03T09:53:35.121Z,1.30
2022-09-03T09:56:04.225Z,1.40
2022-09-03T09:58:35.597Z,1.40
2022-09-03T10:01:13.485Z,0.90
2022-09-03T10:03:55.308Z,1.20
2022-09-03T10:06:45.791Z,1.00
2022-09-03T10:09:17.628Z,1.00
2022-09-03T10:11:52.215Z,1.30
2022-09-03T10:14:35.067Z,1.33
2022-09-03T10:17:15.164Z,1.13
2022-09-03T10:20:22.095Z,1.20
2022-09-03T10:22:57.650Z,1.07
2022-09-03T10:25:39.106Z,1.00
2022-09-03T10:28:13.389Z,1.00
2022-09-03T10:31:15.750Z,1.40
2022-09-03T10:33:52.258Z,1.10
2022-09-03T10:36:26.874Z,1.30
2022-09-03T10:39:05.888Z,0.90
2022-09-03T10:41:51.713Z,1.00
2022-09-03T10:44:35.453Z,2.80
2022-09-03T10:47:29.919Z,1.37
2022-09-03T10:50:16.266Z,0.90
2022-09-03T10:53:12.180Z,1.77
2022-09-03T10:55:56.684Z,1.10
2022-09-03T10:58:59.315Z,1.13
2022-09-03T11:01:42.629Z,1.17
2022-09-03T11:04:31.268Z,1.20
2022-09-03T11:07:10.813Z,1.20
2022-09-03T11:09:48.172Z,1.20
2022-09-03T11:12:25.757Z,1.00
2022-09-03T11:15:03.653Z,1.43
2022-09-03T11:17:41.117Z,0.97
2022-09-03T11:20:20.358Z,1.10
2022-09-03T11:22:54.103Z,1.20
2022-09-03T11:25:32.471Z,0.93
2022-09-03T11:28:19.363Z,0.93
2022-09-03T11:31:13.792Z,1.30
2022-09-03T11:33:48.881Z,1.10
2022-09-03T11:36:31.494Z,1.00
2022-09-03T11:39:01.475Z,1.10
2022-09-03T11:41:36.194Z,1.20
2022-09-03T11:44:19.039Z,1.03
2022-09-03T11:46:59.298Z,1.30
2022-09-03T11:49:33.415Z,1.50
2022-09-03T11:52:09.962Z,1.20
2022-09-03T11:54:46.365Z,3.13
2022-09-03T11:57:26.299Z,1.47
2022-09-03T11:59:55.348Z,1.40
2022-09-03T12:02:33.544Z,1.00
2022-09-03T12:05:35.624Z,1.27
2022-09-03T12:08:49.095Z,1.13
2022-09-03T12:11:40.145Z,1.23
2022-09-03T12:14:23.372Z,1.10
2022-09-03T12:17:23.684Z,1.13
2022-09-03T12:19:55.708Z,1.07
2022-09-03T12:22:28.738Z,1.20
2022-09-03T12:25:08.180Z,1.30
2022-09-03T12:27:45.765Z,1.00
2022-09-03T12:30:22.752Z,1.03
2022-09-03T12:32:52.496Z,1.17
2022-09-03T12:38:18.573Z,1.10
2022-09-03T12:43:37.674Z,0.90
2022-09-03T12:46:16.420Z,1.20
2022-09-03T12:51:51.990Z,1.20
2022-09-03T12:54:23.795Z,1.27
2022-09-03T12:56:59.729Z,1.20
2022-09-03T12:59:35.351Z,0.90
2022-09-03T13:02:19.058Z,1.47
2022-09-03T13:04:48.557Z,1.20
2022-09-03T13:07:32.050Z,1.20
2022-09-03T13:10:08.744Z,1.10
2022-09-03T13:12:52.440Z,1.10
2022-09-03T13:15:25.136Z,1.20
2022-09-03T13:18:24.110Z,1.60
2022-09-03T13:21:16.238Z,1.03
2022-09-03T13:24:03.855Z,1.30
2022-09-03T13:26:46.844Z,1.27
2022-09-03T13:29:50.648Z,1.30
2022-09-03T13:32:37.205Z,1.20
2022-09-03T13:35:17.574Z,1.10
2022-09-03T13:37:53.892Z,1.30
2022-09-03T13:40:34.011Z,2.10
2022-09-03T13:43:22.214Z,1.30
2022-09-03T13:46:00.948Z,1.10
2022-09-03T13:48:54.740Z,1.10
2022-09-03T13:51:30.753Z,1.20
2022-09-03T13:54:22.350Z,1.30
2022-09-03T13:57:06.425Z,1.43
2022-09-03T13:59:46.692Z,1.20
2022-09-03T14:02:29.686Z,1.70
2022-09-03T14:05:10.687Z,1.27
2022-09-03T14:07:59.437Z,1.23
2022-09-03T14:10:54.312Z,1.10
2022-09-03T14:13:39.409Z,1.30
2022-09-03T14:16:15.227Z,1.13
2022-09-03T14:18:56.765Z,1.27
2022-09-03T14:21:32.307Z,1.37
2022-09-03T14:24:15.211Z,1.70
2022-09-03T14:26:53.696Z,1.50
2022-09-03T14:29:28.914Z,1.60
2022-09-03T14:32:22.517Z,1.53
2022-09-03T14:35:13.107Z,1.43
2022-09-03T14:38:23.783Z,1.50
2022-09-03T14:41:06.809Z,1.70
2022-09-03T14:44:04.745Z,1.30
2022-09-03T14:47:10.005Z,1.20
2022-09-03T14:50:09.570Z,1.50
2022-09-03T14:53:01.132Z,1.40
2022-09-03T14:55:57.529Z,1.70
2022-09-03T14:58:58.683Z,1.77
2022-09-03T15:01:35.635Z,1.20
2022-09-03T15:04:51.036Z,1.53
2022-09-03T15:07:32.831Z,1.57
2022-09-03T15:10:16.900Z,1.40
2022-09-03T15:12:51.913Z,1.33
2022-09-03T15:15:31.823Z,1.60
2022-09-03T15:18:24.137Z,1.53
2022-09-03T15:20:57.409Z,1.10
2022-09-03T15:23:45.083Z,1.40
2022-09-03T15:26:47.567Z,1.47
2022-09-03T15:29:36.877Z,1.60
2022-09-03T15:32:19.747Z,1.57
2022-09-03T15:35:08.185Z,1.30
2022-09-03T15:37:46.768Z,1.33
2022-09-03T15:40:30.296Z,1.33
2022-09-03T15:43:10.111Z,1.40
2022-09-03T15:45:52.043Z,1.40
2022-09-03T15:48:35.420Z,1.80
2022-09-03T15:51:14.320Z,1.50
2022-09-03T15:53:53.872Z,1.60
2022-09-03T15:56:29.239Z,1.30
2022-09-03T15:59:07.954Z,1.20
2022-09-03T16:01:46.758Z,1.60
2022-09-03T16:04:43.968Z,1.30
2022-09-03T16:07:25.998Z,1.60
2022-09-03T16:10:24.277Z,1.50
2022-09-03T16:13:06.733Z,1.67
2022-09-03T16:15:41.445Z,1.20
2022-09-03T16:18:26.159Z,1.43
2022-09-03T16:21:02.581Z,1.30
2022-09-03T16:23:41.384Z,1.50
2022-09-03T16:26:19.498Z,1.73
2022-09-03T16:28:58.489Z,1.37
2022-09-03T16:31:44.533Z,1.40
2022-09-03T16:34:26.297Z,1.30
2022-09-03T16:37:10.781Z,1.20
2022-09-03T16:39:54.196Z,2.47
2022-09-03T16:42:32.103Z,1.40
2022-09-03T16:45:15.550Z,1.33
2022-09-03T16:48:05.261Z,1.40
2022-09-03T16:50:59.061Z,1.50
2022-09-03T16:53:50.780Z,1.23
2022-09-03T16:56:47.813Z,1.27
2022-09-03T16:59:42.348Z,1.40
2022-09-03T17:02:43.138Z,1.47
2022-09-03T17:05:47.030Z,1.37
2022-09-03T17:08:31.563Z,1.50
2022-09-03T17:11:20.225Z,1.60
2022-09-03T17:14:13.592Z,1.30
2022-09-03T17:17:00.027Z,1.57
2022-09-03T17:19:45.021Z,1.80
2022-09-03T17:22:40.915Z,1.53
2022-09-03T17:25:25.443Z,1.60
2022-09-03T17:28:12.042Z,1.90
2022-09-03T17:30:50.227Z,1.80
2022-09-03T17:33:49.589Z,1.73
2022-09-03T17:36:24.328Z,1.60
2022-09-03T17:39:26.330Z,1.87
2022-09-03T17:42:02.743Z,1.60
2022-09-03T17:44:56.844Z,1.60
2022-09-03T17:47:53.031Z,2.10
2022-09-03T17:50:27.358Z,1.77
2022-09-03T17:53:01.896Z,1.70
2022-09-03T17:55:37.802Z,1.90
2022-09-03T17:58:15.381Z,1.40
2022-09-03T18:01:08.504Z,1.77
2022-09-03T18:03:51.864Z,1.60
2022-09-03T18:06:33.942Z,1.47
2022-09-03T18:09:13.409Z,1.57
2022-09-03T18:11:51.036Z,1.73
2022-09-03T18:14:29.651Z,1.70
2022-09-03T18:17:11.364Z,1.67
2022-09-03T18:20:04.496Z,2.00
2022-09-03T18:23:06.056Z,3.70
2022-09-03T18:25:58.677Z,3.67
2022-09-03T18:28:59.108Z,3.57
2022-09-03T18:31:45.989Z,2.90
2022-09-03T18:34:47.543Z,2.33
2022-09-03T18:37:38.988Z,2.20
2022-09-03T18:40:29.015Z,2.90
2022-09-03T18:43:29.640Z,2.27
2022-09-03T18:47:28.453Z,2.40
2022-09-03T18:49:48.839Z,2.13
2022-09-03T18:52:45.537Z,3.27
2022-09-03T18:55:41.817Z,2.93
2022-09-03T18:58:44.069Z,3.13
2022-09-03T19:01:48.334Z,6.37
2022-09-03T19:04:47.673Z,6.43
2022-09-03T19:07:50.062Z,4.17
2022-09-03T19:10:44.957Z,3.80
2022-09-03T19:13:50.683Z,3.10
2022-09-03T19:16:48.293Z,3.20
2022-09-03T19:20:07.871Z,3.10
2022-09-03T19:22:56.737Z,3.00
2022-09-03T19:25:45.483Z,3.40
2022-09-03T19:28:36.682Z,4.60
2022-09-03T19:32:00.151Z,4.10
2022-09-03T19:35:16.775Z,3.30
2022-09-03T19:38:21.907Z,3.10
2022-09-03T19:41:24.085Z,2.90
2022-09-03T19:44:34.563Z,3.20
2022-09-03T19:47:23.848Z,3.37
2022-09-03T19:50:24.019Z,2.80
2022-09-03T19:53:16.801Z,2.87
2022-09-03T19:56:07.750Z,2.70
2022-09-03T19:58:59.781Z,2.53
2022-09-03T20:01:53.833Z,6.10
2022-09-03T20:04:48.304Z,3.50
2022-09-03T20:07:37.665Z,3.30
2022-09-03T20:10:23.184Z,5.40
2022-09-03T20:13:04.252Z,4.00
2022-09-03T20:15:48.299Z,2.70
2022-09-03T20:18:32.172Z,2.90
2022-09-03T20:21:14.114Z,3.20
2022-09-03T20:23:59.359Z,2.80
2022-09-03T20:26:49.658Z,3.20
2022-09-03T20:29:49.959Z,3.50
2022-09-03T20:32:42.285Z,4.20
2022-09-03T20:35:22.936Z,4.87
2022-09-03T20:38:04.384Z,3.13
2022-09-03T20:40:47.516Z,2.10
2022-09-03T20:43:43.480Z,4.30
2022-09-03T20:46:35.745Z,2.40
2022-09-03T20:49:18.794Z,2.30
2022-09-03T20:51:58.518Z,2.30
2022-09-03T20:54:36.001Z,2.40
2022-09-03T20:57:22.189Z,2.63
2022-09-03T21:00:06.620Z,2.50
2022-09-03T21:03:15.884Z,2.27
2022-09-03T21:05:58.874Z,2.63
2022-09-03T21:08:52.998Z,2.60
2022-09-03T21:11:36.313Z,2.60
2022-09-03T21:14:24.063Z,2.50
2022-09-03T21:17:15.864Z,2.57
2022-09-03T21:20:08.992Z,2.40
2022-09-03T21:22:53.620Z,2.53
2022-09-03T21:25:30.934Z,2.47
2022-09-03T21:28:08.163Z,2.70
2022-09-03T21:30:42.412Z,3.00
2022-09-03T21:33:20.771Z,2.97
2022-09-03T21:35:55.523Z,3.30
2022-09-03T21:38:28.968Z,5.50
2022-09-03T21:41:08.176Z,4.37
2022-09-03T21:43:46.244Z,3.77
2022-09-03T21:46:22.585Z,4.93
2022-09-03T21:48:57.615Z,4.73
2022-09-03T21:51:37.146Z,4.73
2022-09-03T21:54:13.336Z,4.30
2022-09-03T21:57:17.555Z,5.17
2022-09-03T22:00:18.668Z,4.73
2022-09-03T22:02:51.085Z,4.80
2022-09-03T22:05:20.030Z,4.60
2022-09-03T22:08:19.498Z,4.40
2022-09-03T22:10:59.823Z,5.20
2022-09-03T22:13:34.336Z,5.03
2022-09-03T22:16:13.681Z,4.43
2022-09-03T22:18:44.102Z,4.37
2022-09-03T22:21:22.630Z,4.33
2022-09-03T22:24:14.696Z,4.47
2022-09-03T22:26:52.335Z,4.20
2022-09-03T22:29:36.354Z,3.87
2022-09-03T22:32:23.186Z,3.50
2022-09-03T22:35:32.242Z,3.83
2022-09-03T22:38:23.370Z,3.47
2022-09-03T22:41:06.382Z,3.00
2022-09-03T22:43:40.342Z,3.50
2022-09-03T22:46:14.644Z,3.73
2022-09-03T22:49:15.235Z,4.03
2022-09-03T22:52:01.764Z,3.27
2022-09-03T22:55:07.239Z,3.67
2022-09-03T22:57:47.116Z,3.07
2022-09-03T23:00:15.899Z,3.57
2022-09-03T23:02:48.456Z,3.23
2022-09-03T23:05:34.498Z,3.00
2022-09-03T23:08:12.601Z,3.03
2022-09-03T23:11:02.609Z,3.53
2022-09-03T23:13:37.646Z,3.00
2022-09-03T23:16:19.011Z,3.30
2022-09-03T23:18:51.408Z,3.10
2022-09-03T23:21:28.425Z,3.80
2022-09-03T23:24:07.161Z,3.00
2022-09-03T23:26:42.610Z,3.07
2022-09-03T23:29:19.307Z,3.10
2022-09-03T23:31:47.754Z,3.10
2022-09-03T23:34:17.162Z,2.63
2022-09-03T23:37:36.474Z,3.50
2022-09-03T23:40:28.752Z,3.17
2022-09-03T23:43:31.326Z,3.17
2022-09-03T23:46:14.085Z,3.10
2022-09-03T23:49:22.611Z,3.10
2022-09-03T23:52:14.622Z,3.10
2022-09-03T23:54:49.830Z,3.17
2022-09-03T23:57:26.092Z,3.07
